createdAt,value
2018-08-30T00:02:04.147Z,4.40
2018-08-30T00:04:32.499Z,4.13
2018-08-30T00:07:00.877Z,3.60
2018-08-30T00:09:29.285Z,3.47
2018-08-30T00:11:57.682Z,4.00
2018-08-30T00:14:26.112Z,4.30
2018-08-30T00:16:54.452Z,3.70
2018-08-30T00:19:22.892Z,5.17
2018-08-30T00:21:51.268Z,3.30
2018-08-30T00:24:19.619Z,4.17
2018-08-30T00:26:47.955Z,4.63
2018-08-30T00:29:16.381Z,4.03
2018-08-30T00:31:44.730Z,3.23
2018-08-30T00:34:13.151Z,3.20
2018-08-30T00:36:41.561Z,2.90
2018-08-30T00:39:10.555Z,3.10
2018-08-30T00:41:38.867Z,3.90
2018-08-30T00:44:07.359Z,4.47
2018-08-30T00:46:35.789Z,3.93
2018-08-30T00:49:04.152Z,3.57
2018-08-30T00:51:32.561Z,4.37
2018-08-30T00:54:01.017Z,5.03
2018-08-30T00:56:29.483Z,3.33
2018-08-30T00:58:58.023Z,3.07
2018-08-30T01:01:26.382Z,3.73
2018-08-30T01:03:54.795Z,3.60
2018-08-30T01:06:23.200Z,4.47
2018-08-30T01:08:51.527Z,3.40
2018-08-30T01:11:19.886Z,3.30
2018-08-30T01:13:48.238Z,3.80
2018-08-30T01:16:16.761Z,3.93
2018-08-30T01:18:45.118Z,3.10
2018-08-30T01:21:13.462Z,3.00
2018-08-30T01:23:41.879Z,3.33
2018-08-30T01:26:10.228Z,4.33
2018-08-30T01:28:38.691Z,4.37
2018-08-30T01:31:07.128Z,3.90
2018-08-30T01:33:35.566Z,3.80
2018-08-30T01:36:03.919Z,3.23
2018-08-30T01:38:32.364Z,3.70
2018-08-30T01:41:00.673Z,3.90
2018-08-30T01:43:29.089Z,4.07
2018-08-30T01:45:57.378Z,4.00
2018-08-30T01:48:25.723Z,5.27
2018-08-30T01:50:54.123Z,4.20
2018-08-30T01:53:22.468Z,3.50
2018-08-30T01:55:50.858Z,4.00
2018-08-30T01:58:19.295Z,4.20
2018-08-30T02:00:47.640Z,5.70
2018-08-30T02:03:16.047Z,3.33
2018-08-30T02:05:44.409Z,3.80
2018-08-30T02:08:12.758Z,4.33
2018-08-30T02:10:41.090Z,3.63
2018-08-30T02:13:09.477Z,3.60
2018-08-30T02:15:37.898Z,3.63
2018-08-30T02:18:06.283Z,3.60
2018-08-30T02:20:34.664Z,3.20
2018-08-30T02:23:02.995Z,3.27
2018-08-30T02:25:31.421Z,3.90
2018-08-30T02:27:59.782Z,4.93
2018-08-30T02:30:28.221Z,3.93
2018-08-30T02:32:56.601Z,2.93
2018-08-30T02:35:25.030Z,3.57
2018-08-30T02:37:53.401Z,3.23
2018-08-30T02:40:21.763Z,4.07
2018-08-30T02:42:50.164Z,3.60
2018-08-30T02:45:18.504Z,3.53
2018-08-30T02:47:46.927Z,3.53
2018-08-30T02:50:15.311Z,3.43
2018-08-30T02:52:43.664Z,3.07
2018-08-30T02:55:11.994Z,3.30
2018-08-30T02:57:40.393Z,3.67
2018-08-30T03:00:08.773Z,4.83
2018-08-30T03:02:37.114Z,3.40
2018-08-30T03:05:05.565Z,3.50
2018-08-30T03:07:33.933Z,5.60
2018-08-30T03:10:02.366Z,3.67
2018-08-30T03:12:30.952Z,3.07
2018-08-30T03:15:07.380Z,3.17
2018-08-30T03:17:36.171Z,3.27
2018-08-30T03:20:06.354Z,3.10
2018-08-30T03:22:35.004Z,3.23
2018-08-30T03:25:03.856Z,3.67
2018-08-30T03:27:32.545Z,2.90
2018-08-30T03:30:01.120Z,3.67
2018-08-30T03:32:29.446Z,3.10
2018-08-30T03:34:58.579Z,3.17
2018-08-30T03:37:27.272Z,2.90
2018-08-30T03:39:55.563Z,2.90
2018-08-30T03:42:23.862Z,3.50
2018-08-30T03:44:52.292Z,3.40
2018-08-30T03:47:20.621Z,3.23
2018-08-30T03:49:49.065Z,4.47
2018-08-30T03:52:17.518Z,3.67
2018-08-30T03:54:45.958Z,2.73
2018-08-30T03:57:14.413Z,2.93
2018-08-30T03:59:42.725Z,3.87
2018-08-30T04:02:11.070Z,4.40
2018-08-30T04:04:39.508Z,3.20
2018-08-30T04:07:07.965Z,3.57
2018-08-30T04:09:36.364Z,3.63
2018-08-30T04:12:04.746Z,3.03
2018-08-30T04:14:33.162Z,3.10
2018-08-30T04:17:01.474Z,2.73
2018-08-30T04:19:29.827Z,3.00
2018-08-30T04:21:58.309Z,3.07
2018-08-30T04:24:26.677Z,3.47
2018-08-30T04:26:55.087Z,3.93
2018-08-30T04:29:23.452Z,3.93
2018-08-30T04:31:51.786Z,4.30
2018-08-30T04:34:20.161Z,3.73
2018-08-30T04:36:48.616Z,3.60
2018-08-30T04:39:17.021Z,4.87
2018-08-30T04:41:45.400Z,5.03
2018-08-30T04:44:13.791Z,3.73
2018-08-30T04:46:42.160Z,3.70
2018-08-30T04:49:10.552Z,4.63
2018-08-30T04:51:38.890Z,3.80
2018-08-30T04:54:07.239Z,4.40
2018-08-30T04:56:35.682Z,3.60
2018-08-30T04:59:04.106Z,3.50
2018-08-30T05:01:32.597Z,3.47
2018-08-30T05:04:00.941Z,3.50
2018-08-30T05:06:35.924Z,4.33
2018-08-30T05:09:06.340Z,3.57
2018-08-30T05:11:34.768Z,3.40
2018-08-30T05:14:03.225Z,4.17
2018-08-30T05:16:31.720Z,3.00
2018-08-30T05:19:00.085Z,4.27
2018-08-30T05:21:28.453Z,4.10
2018-08-30T05:23:57.089Z,4.07
2018-08-30T05:26:25.452Z,3.87
2018-08-30T05:28:53.823Z,4.37
2018-08-30T05:31:22.171Z,5.30
2018-08-30T05:33:50.563Z,5.73
2018-08-30T05:36:18.951Z,5.00
2018-08-30T05:38:47.356Z,4.90
2018-08-30T05:41:15.747Z,5.40
2018-08-30T05:43:44.096Z,4.93
2018-08-30T05:46:12.491Z,4.63
2018-08-30T05:48:40.907Z,4.90
2018-08-30T05:51:09.324Z,6.33
2018-08-30T05:53:37.707Z,4.53
2018-08-30T05:56:06.191Z,5.73
2018-08-30T05:58:34.583Z,5.57
2018-08-30T06:01:03.019Z,5.67
2018-08-30T06:03:31.353Z,6.57
2018-08-30T06:05:59.660Z,5.80
2018-08-30T06:08:28.930Z,5.53
2018-08-30T06:10:57.308Z,5.30
2018-08-30T06:13:25.732Z,5.87
2018-08-30T06:15:54.093Z,5.13
2018-08-30T06:18:22.843Z,5.67
2018-08-30T06:20:51.259Z,5.23
2018-08-30T06:23:19.549Z,5.23
2018-08-30T06:25:47.989Z,3.87
2018-08-30T06:28:16.436Z,4.47
2018-08-30T06:30:44.792Z,3.00
2018-08-30T06:33:13.245Z,2.87
2018-08-30T06:35:41.667Z,3.53
2018-08-30T06:38:10.061Z,2.53
2018-08-30T06:40:38.468Z,4.57
2018-08-30T06:43:06.820Z,2.87
2018-08-30T06:45:35.160Z,2.30
2018-08-30T06:48:03.751Z,2.83
2018-08-30T06:50:32.133Z,2.50
2018-08-30T06:53:01.268Z,4.17
2018-08-30T06:55:29.656Z,4.87
2018-08-30T06:57:57.973Z,9.07
2018-08-30T07:00:26.357Z,5.43
2018-08-30T07:02:54.929Z,5.07
2018-08-30T07:05:23.293Z,4.13
2018-08-30T07:07:51.638Z,2.70
2018-08-30T07:10:20.109Z,2.63
2018-08-30T07:12:48.514Z,3.20
2018-08-30T07:15:16.999Z,2.87
2018-08-30T07:17:46.280Z,2.60
2018-08-30T07:20:14.776Z,2.40
2018-08-30T07:22:43.469Z,2.43
2018-08-30T07:25:11.855Z,3.80
2018-08-30T07:27:40.229Z,7.27
2018-08-30T07:30:11.276Z,5.10
2018-08-30T07:32:39.628Z,2.73
2018-08-30T07:35:08.299Z,2.90
2018-08-30T07:37:36.522Z,3.47
2018-08-30T07:40:04.956Z,2.43
2018-08-30T07:42:33.338Z,4.03
2018-08-30T07:45:01.897Z,2.40
2018-08-30T07:47:30.539Z,3.37
2018-08-30T07:49:59.029Z,3.00
2018-08-30T07:52:27.464Z,2.80
2018-08-30T07:54:55.840Z,3.63
2018-08-30T07:57:24.261Z,4.03
2018-08-30T07:59:52.690Z,2.90
2018-08-30T08:02:21.067Z,2.43
2018-08-30T08:04:49.648Z,2.53
2018-08-30T08:07:18.206Z,4.53
2018-08-30T08:09:46.797Z,3.27
2018-08-30T08:12:18.413Z,3.87
2018-08-30T08:14:46.976Z,2.20
2018-08-30T08:17:15.389Z,3.30
2018-08-30T08:19:43.696Z,2.97
2018-08-30T08:22:12.619Z,3.73
2018-08-30T08:24:41.263Z,3.63
2018-08-30T08:27:10.100Z,2.67
2018-08-30T08:29:38.654Z,3.00
2018-08-30T08:32:07.062Z,3.40
2018-08-30T08:34:35.569Z,3.70
2018-08-30T08:37:04.001Z,3.47
2018-08-30T08:39:32.456Z,3.40
2018-08-30T08:42:00.794Z,3.43
2018-08-30T08:44:29.176Z,4.17
2018-08-30T08:46:57.791Z,3.37
2018-08-30T08:49:26.171Z,5.03
2018-08-30T08:51:54.603Z,2.70
2018-08-30T08:54:22.953Z,7.93
2018-08-30T08:56:51.524Z,3.20
2018-08-30T08:59:20.098Z,4.20
2018-08-30T09:01:48.383Z,4.93
2018-08-30T09:04:16.777Z,4.47
2018-08-30T09:06:45.152Z,6.10
2018-08-30T09:09:13.534Z,4.70
2018-08-30T09:11:42.570Z,7.77
2018-08-30T09:14:11.248Z,4.93
2018-08-30T09:16:39.821Z,4.37
2018-08-30T09:19:08.176Z,5.63
2018-08-30T09:21:36.891Z,5.40
2018-08-30T09:24:05.599Z,5.13
2018-08-30T09:26:33.939Z,4.43
2018-08-30T09:29:02.372Z,5.33
2018-08-30T09:31:30.812Z,4.93
2018-08-30T09:33:59.210Z,5.70
2018-08-30T09:36:27.591Z,5.37
2018-08-30T09:38:56.017Z,6.40
2018-08-30T09:41:24.471Z,5.10
2018-08-30T09:43:53.126Z,7.13
2018-08-30T09:46:21.417Z,6.33
2018-08-30T09:48:49.952Z,5.60
2018-08-30T09:51:18.397Z,6.00
2018-08-30T09:53:46.946Z,6.07
2018-08-30T09:56:15.367Z,5.40
2018-08-30T09:58:43.916Z,4.87
2018-08-30T10:01:17.721Z,5.60
2018-08-30T10:03:46.083Z,6.73
2018-08-30T10:06:14.423Z,5.77
2018-08-30T10:08:43.131Z,5.20
2018-08-30T10:11:11.598Z,6.03
2018-08-30T10:13:40.018Z,6.60
2018-08-30T10:16:08.990Z,5.63
2018-08-30T10:18:37.393Z,6.03
2018-08-30T10:21:05.791Z,6.03
2018-08-30T10:23:34.175Z,6.70
2018-08-30T10:26:02.537Z,6.50
2018-08-30T10:28:30.861Z,6.50
2018-08-30T10:30:59.291Z,5.83
2018-08-30T10:33:27.611Z,7.50
2018-08-30T10:35:55.979Z,6.80
2018-08-30T10:38:24.414Z,7.30
2018-08-30T10:40:52.839Z,6.70
2018-08-30T10:43:21.235Z,5.77
2018-08-30T10:45:49.605Z,5.97
2018-08-30T10:48:18.053Z,6.70
2018-08-30T10:50:46.556Z,6.30
2018-08-30T10:53:14.976Z,7.63
2018-08-30T10:55:43.395Z,6.83
2018-08-30T10:58:11.755Z,6.80
2018-08-30T11:00:40.275Z,6.40
2018-08-30T11:03:08.687Z,7.10
2018-08-30T11:05:37.209Z,6.03
2018-08-30T11:08:05.732Z,6.50
2018-08-30T11:10:34.005Z,9.50
2018-08-30T11:13:02.540Z,6.40
2018-08-30T11:15:30.891Z,6.50
2018-08-30T11:17:59.248Z,7.43
2018-08-30T11:20:27.697Z,6.90
2018-08-30T11:22:56.042Z,6.73
2018-08-30T11:25:24.402Z,6.40
2018-08-30T11:27:52.768Z,6.37
2018-08-30T11:30:21.179Z,10.23
2018-08-30T11:32:49.636Z,7.73
2018-08-30T11:35:18.055Z,6.97
2018-08-30T11:37:46.530Z,6.67
2018-08-30T11:40:14.832Z,6.07
2018-08-30T11:42:43.165Z,6.97
2018-08-30T11:45:11.567Z,7.23
2018-08-30T11:47:40.115Z,6.60
2018-08-30T11:50:08.495Z,7.03
2018-08-30T11:52:36.924Z,6.80
2018-08-30T11:55:05.482Z,6.73
2018-08-30T11:57:33.847Z,6.83
2018-08-30T12:00:02.270Z,9.43
2018-08-30T12:02:30.671Z,7.80
2018-08-30T12:04:59.138Z,6.90
2018-08-30T12:07:27.547Z,6.73
2018-08-30T12:09:56.846Z,7.13
2018-08-30T12:12:24.756Z,6.80
2018-08-30T12:14:53.219Z,7.17
2018-08-30T12:17:21.736Z,7.07
2018-08-30T12:19:50.210Z,7.13
2018-08-30T12:22:18.739Z,8.30
2018-08-30T12:24:47.169Z,6.47
2018-08-30T12:27:15.731Z,7.60
2018-08-30T12:29:44.142Z,7.03
2018-08-30T12:32:12.628Z,8.37
2018-08-30T12:34:41.012Z,7.20
2018-08-30T12:37:09.379Z,6.67
2018-08-30T12:39:37.720Z,7.23
2018-08-30T12:42:06.349Z,7.20
2018-08-30T12:44:34.768Z,8.50
2018-08-30T12:47:03.198Z,8.13
2018-08-30T12:49:31.624Z,8.77
2018-08-30T12:51:59.971Z,8.67
2018-08-30T12:54:28.398Z,10.03
2018-08-30T12:56:56.754Z,9.87
2018-08-30T12:59:31.491Z,9.57
2018-08-30T13:01:59.866Z,10.87
2018-08-30T13:04:28.382Z,10.70
2018-08-30T13:06:57.599Z,10.50
2018-08-30T13:09:27.291Z,10.40
2018-08-30T13:11:57.214Z,12.40
2018-08-30T13:14:25.828Z,11.37
2018-08-30T13:16:54.374Z,11.33
2018-08-30T13:19:23.191Z,12.57
2018-08-30T13:21:51.378Z,13.20
2018-08-30T13:24:19.985Z,11.07
2018-08-30T13:26:48.455Z,12.70
2018-08-30T13:29:17.122Z,13.20
2018-08-30T13:31:45.844Z,12.17
2018-08-30T13:34:14.992Z,12.73
2018-08-30T13:36:43.290Z,12.63
2018-08-30T13:39:12.644Z,12.50
2018-08-30T13:41:41.706Z,13.70
2018-08-30T13:44:10.874Z,13.43
2018-08-30T13:46:40.202Z,12.87
2018-08-30T13:49:09.003Z,16.20
2018-08-30T13:51:37.740Z,14.90
2018-08-30T13:54:06.107Z,15.30
2018-08-30T13:56:34.432Z,14.53
2018-08-30T13:59:03.163Z,16.00
2018-08-30T14:01:31.892Z,13.43
2018-08-30T14:03:59.718Z,14.43
2018-08-30T14:06:27.968Z,14.13
2018-08-30T14:08:56.533Z,13.83
2018-08-30T14:11:24.936Z,14.20
2018-08-30T14:13:53.491Z,12.33
2018-08-30T14:16:21.471Z,12.43
2018-08-30T14:18:50.251Z,17.00
2018-08-30T14:21:18.733Z,16.03
2018-08-30T14:23:47.189Z,11.93
2018-08-30T14:26:15.644Z,12.40
2018-08-30T14:28:44.007Z,12.00
2018-08-30T14:31:12.446Z,11.60
2018-08-30T14:33:40.903Z,11.13
2018-08-30T14:36:09.161Z,11.63
2018-08-30T14:38:37.564Z,11.57
2018-08-30T14:41:06.466Z,12.07
2018-08-30T14:43:34.698Z,11.87
2018-08-30T14:46:03.155Z,10.23
2018-08-30T14:48:31.483Z,10.50
2018-08-30T14:50:59.928Z,11.57
2018-08-30T14:53:28.473Z,9.70
2018-08-30T14:55:57.020Z,11.33
2018-08-30T14:58:25.577Z,11.93
2018-08-30T15:00:54.003Z,12.80
2018-08-30T15:03:22.508Z,11.73
2018-08-30T15:05:51.019Z,10.83
2018-08-30T15:08:19.227Z,11.87
2018-08-30T15:10:47.620Z,10.93
2018-08-30T15:13:16.035Z,13.07
2018-08-30T15:15:44.438Z,11.90
2018-08-30T15:18:12.990Z,13.40
2018-08-30T15:20:41.235Z,11.77
2018-08-30T15:23:10.007Z,13.20
2018-08-30T15:25:38.577Z,13.17
2018-08-30T15:28:07.460Z,15.03
2018-08-30T15:30:35.870Z,13.87
2018-08-30T15:33:04.358Z,12.03
2018-08-30T15:35:32.528Z,11.90
2018-08-30T15:38:00.941Z,12.67
2018-08-30T15:40:29.341Z,12.90
2018-08-30T15:42:57.728Z,13.20
2018-08-30T15:45:26.289Z,13.37
2018-08-30T15:47:54.864Z,13.43
2018-08-30T15:50:23.304Z,13.47
2018-08-30T15:52:51.683Z,13.80
2018-08-30T15:55:20.082Z,12.67
2018-08-30T15:57:48.838Z,11.73
2018-08-30T16:00:17.537Z,12.07
2018-08-30T16:02:46.556Z,12.43
2018-08-30T16:05:15.320Z,10.60
2018-08-30T16:07:44.133Z,11.00
2018-08-30T16:10:13.587Z,10.30
2018-08-30T16:12:42.058Z,11.80
2018-08-30T16:15:10.663Z,12.93
2018-08-30T16:17:39.099Z,12.20
2018-08-30T16:20:07.489Z,10.47
2018-08-30T16:23:39.139Z,10.83
2018-08-30T16:26:07.940Z,11.73
2018-08-30T16:28:36.576Z,13.13
2018-08-30T16:31:05.063Z,10.90
2018-08-30T16:33:33.481Z,13.40
2018-08-30T16:36:01.904Z,9.93
2018-08-30T16:38:30.301Z,11.23
2018-08-30T16:40:58.736Z,12.47
2018-08-30T16:43:27.135Z,12.30
2018-08-30T16:45:55.502Z,11.27
2018-08-30T16:48:23.948Z,11.80
2018-08-30T16:50:52.375Z,11.30
2018-08-30T16:53:20.976Z,12.37
2018-08-30T16:55:49.313Z,12.30
2018-08-30T16:58:18.405Z,12.33
2018-08-30T17:00:46.708Z,11.97
2018-08-30T17:03:15.111Z,12.07
2018-08-30T17:05:43.568Z,11.90
2018-08-30T17:08:11.986Z,12.17
2018-08-30T17:10:40.464Z,12.57
2018-08-30T17:13:08.912Z,12.40
2018-08-30T17:15:37.283Z,12.00
2018-08-30T17:18:06.107Z,13.30
2018-08-30T17:20:40.223Z,12.07
2018-08-30T17:23:08.931Z,11.80
2018-08-30T17:25:37.297Z,12.43
2018-08-30T17:28:05.963Z,12.20
2018-08-30T17:30:34.398Z,13.10
2018-08-30T17:33:02.778Z,11.17
2018-08-30T17:35:31.110Z,13.10
2018-08-30T17:37:59.500Z,13.50
2018-08-30T17:40:27.925Z,12.03
2018-08-30T17:42:56.278Z,12.07
2018-08-30T17:45:24.895Z,12.30
2018-08-30T17:47:53.283Z,12.10
2018-08-30T17:50:21.952Z,11.47
2018-08-30T17:52:50.361Z,12.47
2018-08-30T17:55:19.002Z,11.50
2018-08-30T17:57:47.813Z,12.20
2018-08-30T18:00:16.193Z,12.33
2018-08-30T18:02:45.740Z,13.57
2018-08-30T18:05:14.588Z,12.67
2018-08-30T18:07:43.303Z,12.37
2018-08-30T18:10:11.668Z,11.23
2018-08-30T18:12:40.557Z,12.17
2018-08-30T18:15:12.439Z,13.30
2018-08-30T18:17:40.906Z,12.73
2018-08-30T18:20:09.340Z,12.50
2018-08-30T18:22:37.776Z,12.13
2018-08-30T18:25:06.396Z,11.27
2018-08-30T18:27:34.775Z,12.87
2018-08-30T18:30:03.242Z,12.30
2018-08-30T18:32:31.621Z,11.70
2018-08-30T18:34:59.982Z,12.40
2018-08-30T18:37:28.361Z,12.40
2018-08-30T18:39:56.773Z,13.50
2018-08-30T18:42:25.159Z,13.67
2018-08-30T18:44:53.460Z,13.70
2018-08-30T18:47:21.951Z,13.97
2018-08-30T18:49:51.492Z,13.43
2018-08-30T18:52:19.978Z,14.03
2018-08-30T18:54:48.352Z,16.23
2018-08-30T18:57:17.060Z,15.07
2018-08-30T18:59:45.527Z,14.40
2018-08-30T19:02:14.829Z,14.50
2018-08-30T19:04:43.383Z,14.43
2018-08-30T19:07:12.036Z,13.47
2018-08-30T19:09:40.549Z,13.97
2018-08-30T19:12:08.899Z,14.90
2018-08-30T19:14:37.379Z,14.40
2018-08-30T19:18:10.232Z,14.40
2018-08-30T19:20:38.856Z,14.00
2018-08-30T19:23:07.322Z,13.03
2018-08-30T19:25:35.821Z,15.43
2018-08-30T19:28:04.469Z,13.13
2018-08-30T19:30:33.429Z,15.03
2018-08-30T19:33:01.800Z,13.50
2018-08-30T19:35:35.526Z,14.87
2018-08-30T19:38:03.988Z,14.33
2018-08-30T19:40:37.639Z,15.00
2018-08-30T19:43:06.177Z,16.00
2018-08-30T19:45:34.630Z,13.60
2018-08-30T19:48:03.041Z,14.70
2018-08-30T19:50:31.542Z,14.70
2018-08-30T19:53:00.232Z,14.83
2018-08-30T19:55:28.663Z,15.27
2018-08-30T19:57:57.056Z,15.17
2018-08-30T20:00:25.401Z,14.63
2018-08-30T20:02:53.836Z,15.73
2018-08-30T20:05:22.362Z,14.80
2018-08-30T20:07:50.733Z,14.27
2018-08-30T20:10:19.119Z,15.23
2018-08-30T20:12:47.589Z,15.70
2018-08-30T20:15:16.070Z,15.53
2018-08-30T20:17:44.598Z,16.00
2018-08-30T20:20:12.968Z,14.43
2018-08-30T20:22:41.382Z,16.07
2018-08-30T20:25:09.816Z,14.60
2018-08-30T20:27:38.254Z,14.40
2018-08-30T20:30:06.861Z,14.20
2018-08-30T20:32:35.347Z,15.47
2018-08-30T20:35:03.764Z,15.00
2018-08-30T20:37:32.161Z,13.90
2018-08-30T20:40:00.491Z,14.73
2018-08-30T20:42:29.441Z,14.70
2018-08-30T20:44:58.368Z,13.90
2018-08-30T20:47:26.926Z,15.47
2018-08-30T20:49:55.338Z,13.87
2018-08-30T20:52:23.833Z,14.00
2018-08-30T20:54:52.255Z,15.50
2018-08-30T20:57:20.670Z,16.20
2018-08-30T20:59:49.103Z,17.47
2018-08-30T21:02:17.558Z,15.63
2018-08-30T21:04:45.911Z,15.07
2018-08-30T21:07:14.340Z,15.27
2018-08-30T21:09:42.729Z,14.47
2018-08-30T21:12:11.112Z,16.07
2018-08-30T21:14:39.534Z,15.73
2018-08-30T21:17:07.936Z,15.70
2018-08-30T21:19:36.564Z,15.10
2018-08-30T21:22:04.976Z,15.80
2018-08-30T21:24:33.349Z,16.20
2018-08-30T21:27:01.695Z,15.57
2018-08-30T21:29:30.131Z,15.27
2018-08-30T21:31:58.413Z,15.83
2018-08-30T21:34:26.840Z,15.17
2018-08-30T21:36:55.335Z,17.40
2018-08-30T21:39:23.747Z,14.63
2018-08-30T21:41:52.175Z,16.43
2018-08-30T21:44:20.605Z,15.50
2018-08-30T21:46:49.064Z,14.87
2018-08-30T21:49:18.152Z,16.80
2018-08-30T21:51:46.696Z,15.43
2018-08-30T21:54:15.096Z,15.10
2018-08-30T21:56:43.547Z,15.83
2018-08-30T21:59:11.871Z,16.57
2018-08-30T22:01:40.366Z,15.97
2018-08-30T22:04:08.694Z,16.00
2018-08-30T22:06:37.106Z,16.13
2018-08-30T22:09:08.227Z,16.40
2018-08-30T22:11:36.564Z,16.67
2018-08-30T22:14:04.954Z,16.13
2018-08-30T22:16:33.516Z,18.57
2018-08-30T22:19:01.941Z,15.57
2018-08-30T22:21:30.470Z,16.37
2018-08-30T22:23:58.873Z,15.20
2018-08-30T22:26:27.613Z,16.30
2018-08-30T22:28:56.012Z,16.53
2018-08-30T22:31:24.356Z,16.27
2018-08-30T22:33:52.770Z,16.53
2018-08-30T22:36:21.167Z,16.50
2018-08-30T22:38:49.572Z,18.00
2018-08-30T22:41:17.965Z,18.50
2018-08-30T22:43:46.348Z,17.87
2018-08-30T22:46:14.692Z,15.70
2018-08-30T22:48:43.038Z,15.93
2018-08-30T22:51:11.379Z,14.30
2018-08-30T22:53:39.679Z,16.93
2018-08-30T22:56:08.088Z,15.37
2018-08-30T22:58:36.528Z,16.33
2018-08-30T23:01:04.980Z,16.47
2018-08-30T23:03:33.364Z,16.40
2018-08-30T23:06:01.783Z,16.30
2018-08-30T23:08:30.207Z,16.77
2018-08-30T23:10:58.607Z,14.90
2018-08-30T23:13:26.938Z,15.27
2018-08-30T23:15:55.320Z,17.23
2018-08-30T23:18:23.980Z,15.87
2018-08-30T23:20:52.351Z,17.40
2018-08-30T23:23:20.777Z,16.20
2018-08-30T23:25:49.201Z,17.03
2018-08-30T23:28:17.543Z,16.33
2018-08-30T23:30:45.902Z,15.33
2018-08-30T23:33:14.228Z,16.47
2018-08-30T23:35:42.566Z,15.07
2018-08-30T23:38:10.881Z,15.97
2018-08-30T23:40:39.235Z,16.27
2018-08-30T23:43:07.638Z,15.50
2018-08-30T23:45:36.061Z,16.40
2018-08-30T23:48:04.712Z,14.80
2018-08-30T23:50:33.096Z,16.27
2018-08-30T23:53:01.517Z,17.00
2018-08-30T23:55:29.916Z,16.03
2018-08-30T23:58:09.699Z,16.77
